Weather at Meadows Field

Public forecast

Using degrees Fahrenheit for public forecast. Weather courtesy of forecast.io.

Current aviation weather report (METAR) for Meadows Field

Retrieved 2021/10/27 04:54 UTC (2 hours ago):

KBFL 270454Z AUTO 15003KT 8SM CLR 13/09 A3026 RMK AO2 SLP246 T01330089

Aviation forecast (TAF) for Meadows Field

Retrieved 2021/10/27 06:22 UTC (11 minutes ago):

TAF KBFL 270520Z 2706/2806 VRB05KT P6SM SKC FM270900 VRB03KT 4SM BR SKC TEMPO 2713/2717 1/2SM FG VV002 FM271700 VRB02KT 2SM BR BKN005 FM271900 VRB04KT P6SM SKC